Current Conditions
Clear
Conditions



Pressure
1030.92 (mb) - 30.44 (inHG)
Visibility

6.2 (miles) - 10.0 (km)
   Temperature
6  °C
Temperature
4  °C
Dewpoint
87  %
 Humidity
   Wind Speed
7  mph
6  kts
11  km/h
3.1  m/s
   Wind Direction
N
45°
E
90°
135°
S
180°
225°
W
270°
315°
 260°

Due West
   Airport Data
EGGD
Bristol Airport
Metar :EGGD 131920Z AUTO 26006KT 9999 NCD 06/04 Q1031
Tue 13th April 20:20 pm
   Raw Metar Info
Raw METAR is the most common format in the world for the transmission of observational weather data. It is highly standardized through the International Civil Aviation Organization (ICAO), which allows it to be understood throughout most of the world.
   API Info
Data Provided by
https://www.checkwx.com/weather/EGGD

Aviation Weather providing METAR, TAF, AIRMET, SIGMET and OUTLOOK Weather Reports
   © Info
CSS/SVG/PHP scripts were developed by weather34.com for use in the weather34 template © 2015-2021

Guide Info provided by Metar-Wikipedia